createdAt,value
2018-03-11T00:02:18.471Z,47.45
2018-03-11T00:04:45.921Z,46.35
2018-03-11T00:07:13.710Z,46.70
2018-03-11T00:09:41.235Z,43.83
2018-03-11T00:12:08.775Z,45.92
2018-03-11T00:14:36.781Z,46.70
2018-03-11T00:17:05.051Z,44.00
2018-03-11T00:19:32.577Z,45.15
2018-03-11T00:22:00.404Z,43.20
2018-03-11T00:24:28.821Z,45.80
2018-03-11T00:26:56.299Z,44.75
2018-03-11T00:29:24.355Z,42.15
2018-03-11T00:31:51.824Z,43.10
2018-03-11T00:34:19.300Z,45.83
2018-03-11T00:36:47.234Z,43.80
2018-03-11T00:39:14.707Z,42.20
2018-03-11T00:41:42.213Z,41.33
2018-03-11T00:44:10.472Z,43.35
2018-03-11T00:46:37.940Z,42.72
2018-03-11T00:49:06.190Z,40.35
2018-03-11T00:51:33.974Z,38.92
2018-03-11T00:54:02.215Z,39.50
2018-03-11T00:56:29.711Z,36.47
2018-03-11T00:58:58.238Z,37.50
2018-03-11T01:01:25.701Z,39.95
2018-03-11T01:03:53.185Z,37.95
2018-03-11T01:06:20.706Z,40.65
2018-03-11T01:08:48.184Z,35.47
2018-03-11T01:11:15.664Z,36.10
2018-03-11T01:13:44.243Z,39.10
2018-03-11T01:16:11.717Z,37.35
2018-03-11T01:18:39.976Z,38.40
2018-03-11T01:21:08.348Z,35.70
2018-03-11T01:23:35.893Z,36.25
2018-03-11T01:26:03.483Z,35.35
2018-03-11T01:28:31.298Z,37.10
2018-03-11T01:30:58.853Z,37.22
2018-03-11T01:33:26.452Z,38.38
2018-03-11T01:35:54.277Z,37.60
2018-03-11T01:38:21.788Z,38.30
2018-03-11T01:40:49.356Z,38.53
2018-03-11T01:43:17.936Z,38.92
2018-03-11T01:45:46.459Z,39.70
2018-03-11T01:48:13.932Z,38.17
2018-03-11T01:50:41.823Z,38.78
2018-03-11T01:53:09.331Z,40.30
2018-03-11T01:55:36.858Z,39.13
2018-03-11T01:58:05.431Z,40.58
2018-03-11T02:00:32.970Z,39.00
2018-03-11T02:03:00.538Z,39.08
2018-03-11T02:05:28.471Z,40.17
2018-03-11T02:07:55.948Z,38.70
2018-03-11T02:10:23.486Z,40.33
2018-03-11T02:12:51.046Z,41.60
2018-03-11T02:15:18.514Z,39.17
2018-03-11T02:17:46.009Z,37.88
2018-03-11T02:20:13.792Z,39.88
2018-03-11T02:22:42.046Z,39.45
2018-03-11T02:25:09.556Z,38.33
2018-03-11T02:27:37.039Z,33.83
2018-03-11T02:30:04.515Z,41.03
2018-03-11T02:32:31.991Z,34.42
2018-03-11T02:35:00.569Z,34.60
2018-03-11T02:37:28.034Z,30.25
2018-03-11T02:39:55.540Z,31.33
2018-03-11T02:42:23.792Z,32.55
2018-03-11T02:44:51.279Z,31.37
2018-03-11T02:47:18.773Z,35.53
2018-03-11T02:49:46.288Z,32.10
2018-03-11T02:52:13.751Z,32.13
2018-03-11T02:54:41.247Z,33.47
2018-03-11T02:57:09.871Z,33.47
2018-03-11T02:59:37.343Z,33.38
2018-03-11T03:02:05.115Z,34.42
2018-03-11T03:04:32.613Z,32.47
2018-03-11T03:07:00.851Z,33.50
2018-03-11T03:09:28.316Z,34.75
2018-03-11T03:11:56.314Z,34.53
2018-03-11T03:14:24.550Z,34.30
2018-03-11T03:16:52.092Z,34.20
2018-03-11T03:19:20.016Z,35.10
2018-03-11T03:21:48.316Z,35.88
2018-03-11T03:24:16.600Z,35.55
2018-03-11T03:26:44.428Z,35.25
2018-03-11T03:29:11.896Z,38.53
2018-03-11T03:31:40.153Z,33.30
2018-03-11T03:34:07.923Z,35.45
2018-03-11T03:36:35.531Z,36.55
2018-03-11T03:39:03.045Z,33.65
2018-03-11T03:41:31.669Z,37.25
2018-03-11T03:43:59.160Z,33.97
2018-03-11T03:46:26.628Z,34.55
2018-03-11T03:48:54.507Z,34.92
2018-03-11T03:51:22.008Z,35.67
2018-03-11T03:53:49.506Z,34.45
2018-03-11T03:56:17.387Z,32.47
2018-03-11T03:58:45.668Z,33.63
2018-03-11T04:01:13.936Z,34.10
2018-03-11T04:03:42.262Z,34.72
2018-03-11T04:06:09.734Z,34.45
2018-03-11T04:08:37.233Z,33.20
2018-03-11T04:11:05.013Z,34.40
2018-03-11T04:13:33.295Z,34.28
2018-03-11T04:16:01.539Z,32.60
2018-03-11T04:18:29.326Z,33.33
2018-03-11T04:20:57.587Z,33.20
2018-03-11T04:23:25.091Z,36.00
2018-03-11T04:25:52.579Z,35.13
2018-03-11T04:28:20.091Z,36.80
2018-03-11T04:30:47.596Z,37.72
2018-03-11T04:33:15.182Z,35.60
2018-03-11T04:35:43.500Z,36.30
2018-03-11T04:38:10.971Z,39.30
2018-03-11T04:40:38.649Z,39.90
2018-03-11T04:43:06.155Z,39.10
2018-03-11T04:45:33.625Z,40.03
2018-03-11T04:48:01.459Z,36.38
2018-03-11T04:50:29.775Z,32.53
2018-03-11T04:52:57.251Z,33.40
2018-03-11T04:55:25.057Z,34.13
2018-03-11T04:57:53.291Z,36.38
2018-03-11T05:00:20.751Z,34.05
2018-03-11T05:02:48.641Z,37.95
2018-03-11T05:05:16.123Z,35.28
2018-03-11T05:07:44.356Z,36.50
2018-03-11T05:10:11.844Z,35.33
2018-03-11T05:12:40.077Z,39.22
2018-03-11T05:15:07.557Z,36.78
2018-03-11T05:17:35.435Z,37.55
2018-03-11T05:20:02.924Z,32.67
2018-03-11T05:22:30.801Z,34.30
2018-03-11T05:24:58.627Z,34.10
2018-03-11T05:27:26.092Z,32.70
2018-03-11T05:29:54.321Z,31.67
2018-03-11T05:32:21.812Z,31.37
2018-03-11T05:34:50.044Z,29.00
2018-03-11T05:37:17.515Z,30.88
2018-03-11T05:39:45.207Z,30.17
2018-03-11T05:42:12.723Z,28.30
2018-03-11T05:44:40.196Z,30.05
2018-03-11T05:47:08.094Z,28.83
2018-03-11T05:49:36.367Z,27.33
2018-03-11T05:52:03.839Z,27.25
2018-03-11T05:54:32.407Z,28.40
2018-03-11T05:56:59.914Z,28.50
2018-03-11T05:59:27.410Z,28.00
2018-03-11T06:01:55.191Z,28.70
2018-03-11T06:04:23.435Z,28.85
2018-03-11T06:06:50.904Z,28.87
2018-03-11T06:09:18.838Z,27.90
2018-03-11T06:11:46.368Z,28.65
2018-03-11T06:14:14.683Z,27.08
2018-03-11T06:16:42.548Z,26.98
2018-03-11T06:19:10.095Z,27.98
2018-03-11T06:21:37.567Z,27.60
2018-03-11T06:24:05.111Z,27.65
2018-03-11T06:26:32.591Z,27.27
2018-03-11T06:29:00.129Z,26.05
2018-03-11T06:31:27.953Z,29.80
2018-03-11T06:33:56.326Z,28.12
2018-03-11T06:36:24.582Z,29.95
2018-03-11T06:38:52.378Z,30.50
2018-03-11T06:41:20.647Z,30.37
2018-03-11T06:43:48.895Z,29.67
2018-03-11T06:46:16.621Z,31.25
2018-03-11T06:48:44.167Z,29.90
2018-03-11T06:51:11.813Z,32.35
2018-03-11T06:53:40.651Z,37.20
2018-03-11T06:56:08.238Z,35.40
2018-03-11T06:58:35.711Z,30.23
2018-03-11T07:01:04.296Z,34.60
2018-03-11T07:03:32.648Z,36.83
2018-03-11T07:06:00.122Z,37.50
2018-03-11T07:08:28.793Z,37.88
2018-03-11T07:10:56.299Z,37.22
2018-03-11T07:13:24.551Z,37.42
2018-03-11T07:15:52.424Z,38.78
2018-03-11T07:18:20.655Z,37.45
2018-03-11T07:20:48.217Z,39.78
2018-03-11T07:23:16.014Z,39.28
2018-03-11T07:25:43.492Z,38.33
2018-03-11T07:28:10.971Z,36.10
2018-03-11T07:30:38.800Z,39.53
2018-03-11T07:33:07.122Z,37.05
2018-03-11T07:35:34.610Z,38.75
2018-03-11T07:38:02.097Z,40.42
2018-03-11T07:40:29.593Z,38.95
2018-03-11T07:42:57.111Z,39.67
2018-03-11T07:45:25.890Z,40.88
2018-03-11T07:47:54.119Z,38.28
2018-03-11T07:50:21.612Z,33.53
2018-03-11T07:52:49.650Z,37.58
2018-03-11T07:55:17.188Z,37.67
2018-03-11T07:57:44.660Z,32.22
2018-03-11T08:00:12.466Z,35.17
2018-03-11T08:02:39.953Z,40.08
2018-03-11T08:05:07.439Z,38.03
2018-03-11T08:07:35.234Z,38.97
2018-03-11T08:10:02.696Z,38.25
2018-03-11T08:12:30.189Z,30.55
2018-03-11T08:14:58.028Z,32.60
2018-03-11T08:17:26.280Z,39.70
2018-03-11T08:19:54.218Z,38.85
2018-03-11T08:22:22.036Z,27.77
2018-03-11T08:24:49.505Z,27.90
2018-03-11T08:27:17.739Z,37.03
2018-03-11T08:29:45.638Z,33.15
2018-03-11T08:32:13.902Z,37.67
2018-03-11T08:34:41.374Z,39.47
2018-03-11T08:37:10.105Z,43.35
2018-03-11T08:39:37.616Z,41.95
2018-03-11T08:42:05.861Z,39.20
2018-03-11T08:44:33.663Z,40.33
2018-03-11T08:47:01.918Z,30.73
2018-03-11T08:49:29.802Z,35.83
2018-03-11T08:51:58.427Z,42.13
2018-03-11T08:54:27.048Z,26.80
2018-03-11T08:56:55.387Z,39.58
2018-03-11T08:59:23.190Z,39.97
2018-03-11T09:01:50.675Z,40.42
2018-03-11T09:04:18.908Z,40.15
2018-03-11T09:06:46.800Z,32.63
2018-03-11T09:09:14.272Z,38.42
2018-03-11T09:11:42.522Z,37.97
2018-03-11T09:14:10.271Z,40.08
2018-03-11T09:16:37.800Z,33.28
2018-03-11T09:19:05.360Z,41.13
2018-03-11T09:21:32.951Z,40.00
2018-03-11T09:24:00.421Z,37.00
2018-03-11T09:26:28.755Z,33.13
2018-03-11T09:28:56.257Z,36.92
2018-03-11T09:31:23.768Z,39.60
2018-03-11T09:33:51.306Z,38.70
2018-03-11T09:36:18.796Z,39.65
2018-03-11T09:38:46.304Z,36.78
2018-03-11T09:41:14.553Z,38.05
2018-03-11T09:43:42.339Z,34.88
2018-03-11T09:46:10.614Z,32.58
2018-03-11T09:48:38.120Z,34.38
2018-03-11T09:51:05.639Z,29.17
2018-03-11T09:53:33.896Z,22.62
2018-03-11T09:56:01.374Z,31.40
2018-03-11T09:58:29.680Z,28.25
2018-03-11T10:00:57.162Z,24.60
2018-03-11T10:03:24.668Z,23.75
2018-03-11T10:05:53.256Z,28.25
2018-03-11T10:08:21.496Z,15.65
2018-03-11T10:10:49.607Z,25.75
2018-03-11T10:13:17.453Z,24.08
2018-03-11T10:15:45.706Z,21.00
2018-03-11T10:18:13.576Z,11.73
2018-03-11T10:20:41.456Z,21.67
2018-03-11T10:23:09.068Z,18.58
2018-03-11T10:25:36.581Z,25.73
2018-03-11T10:28:04.461Z,24.90
2018-03-11T10:30:32.699Z,20.30
2018-03-11T10:33:00.175Z,23.65
2018-03-11T10:35:28.446Z,27.10
2018-03-11T10:37:55.919Z,24.35
2018-03-11T10:40:24.156Z,17.40
2018-03-11T10:42:52.594Z,24.35
2018-03-11T10:45:20.084Z,22.65
2018-03-11T10:50:21.843Z,28.35
2018-03-11T10:52:49.354Z,28.60
2018-03-11T10:55:17.782Z,30.20
2018-03-11T10:57:45.591Z,31.12
2018-03-11T11:00:13.117Z,27.40
2018-03-11T11:02:40.714Z,28.73
2018-03-11T11:05:08.225Z,28.80
2018-03-11T11:07:35.712Z,26.05
2018-03-11T11:10:03.196Z,22.83
2018-03-11T11:12:31.821Z,20.20
2018-03-11T11:14:59.335Z,15.93
2018-03-11T11:17:27.583Z,18.00
2018-03-11T11:19:55.425Z,12.00
2018-03-11T11:22:22.979Z,16.83
2018-03-11T11:24:50.536Z,20.73
2018-03-11T11:27:18.364Z,20.42
2018-03-11T11:29:47.720Z,24.40
2018-03-11T11:32:15.263Z,26.40
2018-03-11T11:34:43.110Z,27.05
2018-03-11T11:37:10.687Z,24.27
2018-03-11T11:39:38.168Z,16.65
2018-03-11T11:42:06.014Z,15.85
2018-03-11T11:44:33.486Z,16.55
2018-03-11T11:47:01.038Z,18.17
2018-03-11T11:49:28.878Z,17.55
2018-03-11T11:51:56.375Z,17.25
2018-03-11T11:54:23.860Z,13.18
2018-03-11T11:56:51.732Z,14.00
2018-03-11T11:59:19.224Z,12.02
2018-03-11T12:01:46.807Z,11.63
2018-03-11T12:04:14.326Z,13.95
2018-03-11T12:06:42.613Z,12.90
2018-03-11T12:09:10.104Z,15.48
2018-03-11T12:11:38.242Z,15.27
2018-03-11T12:14:05.738Z,15.70
2018-03-11T12:16:33.299Z,14.20
2018-03-11T12:19:00.797Z,13.50
2018-03-11T12:21:29.071Z,13.85
2018-03-11T12:23:57.384Z,14.05
2018-03-11T12:26:25.179Z,14.13
2018-03-11T12:28:52.674Z,12.52
2018-03-11T12:31:20.164Z,11.77
2018-03-11T12:33:47.704Z,10.00
2018-03-11T12:36:15.192Z,10.10
2018-03-11T12:38:42.736Z,8.93
2018-03-11T12:41:11.421Z,8.10
2018-03-11T12:43:39.195Z,10.20
2018-03-11T12:46:06.732Z,9.85
2018-03-11T12:48:34.228Z,10.32
2018-03-11T12:51:01.768Z,10.20
2018-03-11T12:53:29.288Z,9.15
2018-03-11T12:55:58.004Z,10.95
2018-03-11T12:58:25.482Z,10.10
2018-03-11T13:00:52.949Z,9.25
2018-03-11T13:03:20.754Z,9.55
2018-03-11T13:05:49.029Z,10.50
2018-03-11T13:08:17.280Z,9.30
2018-03-11T13:10:45.168Z,8.48
2018-03-11T13:13:13.404Z,5.50
2018-03-11T13:15:40.876Z,6.97
2018-03-11T13:18:08.776Z,6.37
2018-03-11T13:20:48.050Z,5.97
2018-03-11T13:23:15.528Z,5.45
2018-03-11T13:25:43.037Z,5.03
2018-03-11T13:28:22.747Z,4.65
2018-03-11T13:30:50.288Z,4.07
2018-03-11T13:33:29.743Z,4.80
2018-03-11T13:35:57.210Z,4.70
2018-03-11T13:38:36.872Z,4.78
2018-03-11T13:41:04.436Z,4.45
2018-03-11T13:43:31.959Z,4.53
2018-03-11T13:46:11.736Z,5.18
2018-03-11T13:48:39.238Z,4.82
2018-03-11T13:51:06.708Z,4.87
2018-03-11T13:53:46.123Z,5.15
2018-03-11T13:56:13.583Z,5.40
2018-03-11T13:58:45.101Z,5.35
2018-03-11T14:01:12.694Z,4.50
2018-03-11T14:03:40.159Z,5.30
2018-03-11T14:06:07.648Z,4.57
2018-03-11T14:08:35.919Z,4.50
2018-03-11T14:11:04.245Z,5.10
2018-03-11T14:13:31.719Z,4.65
2018-03-11T14:15:59.624Z,4.57
2018-03-11T14:18:27.871Z,5.15
2018-03-11T14:20:55.336Z,5.12
2018-03-11T14:23:23.123Z,5.30
2018-03-11T14:25:51.016Z,5.60
2018-03-11T14:28:18.500Z,5.72
2018-03-11T14:30:46.000Z,5.97
2018-03-11T14:33:13.509Z,4.37
2018-03-11T14:35:41.014Z,4.62
2018-03-11T14:38:08.623Z,5.40
2018-03-11T14:40:36.099Z,6.70
2018-03-11T14:43:03.596Z,5.60
2018-03-11T14:45:31.841Z,5.80
2018-03-11T14:47:59.355Z,6.00
2018-03-11T14:50:27.624Z,6.93
2018-03-11T14:52:55.114Z,7.10
2018-03-11T14:55:22.641Z,6.55
2018-03-11T14:57:50.204Z,6.53
2018-03-11T15:00:18.188Z,6.25
2018-03-11T15:02:45.690Z,6.95
2018-03-11T15:05:13.306Z,7.22
2018-03-11T15:07:40.816Z,7.12
2018-03-11T15:10:08.323Z,7.68
2018-03-11T15:12:35.877Z,6.72
2018-03-11T15:15:04.096Z,7.35
2018-03-11T15:17:31.613Z,8.05
2018-03-11T15:19:59.080Z,8.10
2018-03-11T15:22:26.887Z,8.30
2018-03-11T15:24:55.128Z,8.70
2018-03-11T15:27:22.636Z,8.73
2018-03-11T15:29:50.951Z,9.18
2018-03-11T15:32:18.538Z,8.32
2018-03-11T15:34:45.981Z,7.82
2018-03-11T15:37:13.725Z,8.60
2018-03-11T15:39:41.212Z,8.80
2018-03-11T15:42:08.690Z,9.40
2018-03-11T15:44:36.181Z,8.02
2018-03-11T15:47:04.496Z,9.70
2018-03-11T15:49:31.978Z,7.37
2018-03-11T15:51:59.455Z,6.95
2018-03-11T15:54:27.696Z,6.62
2018-03-11T15:56:55.188Z,6.87
2018-03-11T15:59:23.472Z,6.10
2018-03-11T16:01:51.714Z,5.80
2018-03-11T16:04:19.178Z,5.53
2018-03-11T16:06:46.655Z,5.78
2018-03-11T16:09:14.900Z,5.55
2018-03-11T16:11:42.380Z,5.18
2018-03-11T16:14:10.978Z,5.32
2018-03-11T16:16:38.563Z,5.60
2018-03-11T16:19:06.094Z,5.18
2018-03-11T16:21:34.713Z,5.45
2018-03-11T16:24:02.996Z,5.75
2018-03-11T16:26:30.552Z,5.12
2018-03-11T16:28:58.340Z,5.68
2018-03-11T16:31:25.819Z,6.72
2018-03-11T16:33:54.100Z,6.82
2018-03-11T16:36:22.673Z,6.10
2018-03-11T16:38:50.934Z,5.97
2018-03-11T16:41:18.404Z,6.50
2018-03-11T16:43:45.964Z,7.53
2018-03-11T16:46:13.430Z,6.90
2018-03-11T16:48:41.681Z,7.85
2018-03-11T16:51:09.548Z,7.70
2018-03-11T16:53:37.071Z,7.90
2018-03-11T16:56:04.553Z,6.55
2018-03-11T16:58:32.345Z,7.32
2018-03-11T17:01:00.605Z,7.82
2018-03-11T17:03:28.094Z,7.80
2018-03-11T17:05:56.348Z,8.10
2018-03-11T17:08:24.681Z,8.32
2018-03-11T17:10:52.189Z,9.20
2018-03-11T17:13:20.456Z,8.50
2018-03-11T17:15:48.858Z,8.20
2018-03-11T17:18:17.091Z,9.35
2018-03-11T17:20:44.580Z,10.25
2018-03-11T17:23:12.052Z,10.70
2018-03-11T17:25:40.350Z,11.00
2018-03-11T17:28:08.867Z,12.00
2018-03-11T17:30:36.362Z,11.57
2018-03-11T17:33:03.860Z,13.27
2018-03-11T17:35:31.346Z,13.20
2018-03-11T17:37:58.980Z,14.63
2018-03-11T17:40:26.632Z,11.55
2018-03-11T17:42:54.557Z,11.57
2018-03-11T17:45:22.811Z,12.20
2018-03-11T17:47:50.345Z,11.07
2018-03-11T17:50:18.136Z,12.45
2018-03-11T17:52:45.647Z,12.65
2018-03-11T17:55:13.217Z,13.00
2018-03-11T17:57:40.744Z,12.50
2018-03-11T18:00:08.981Z,12.77
2018-03-11T18:02:36.475Z,13.68
2018-03-11T18:05:05.063Z,12.85
2018-03-11T18:07:33.369Z,13.48
2018-03-11T18:10:00.836Z,15.70
2018-03-11T18:12:29.030Z,16.85
2018-03-11T18:14:56.487Z,18.00
2018-03-11T18:17:24.026Z,18.10
2018-03-11T18:19:51.885Z,18.60
2018-03-11T18:22:19.365Z,17.70
2018-03-11T18:24:46.858Z,17.98
2018-03-11T18:27:15.445Z,18.75
2018-03-11T18:29:43.692Z,19.37
2018-03-11T18:32:11.265Z,17.62
2018-03-11T18:34:39.036Z,18.35
2018-03-11T18:37:07.292Z,18.27
2018-03-11T18:39:34.813Z,16.77
2018-03-11T18:42:02.308Z,18.77
2018-03-11T18:44:29.872Z,19.65
2018-03-11T18:46:57.411Z,19.70
2018-03-11T18:49:25.259Z,19.33
2018-03-11T18:51:52.833Z,20.77
2018-03-11T18:54:20.312Z,20.85
2018-03-11T18:56:47.807Z,21.25
2018-03-11T18:59:15.358Z,20.05
2018-03-11T19:01:42.852Z,19.40
2018-03-11T19:04:10.741Z,19.30
2018-03-11T19:06:38.293Z,19.87
2018-03-11T19:09:05.840Z,20.05
2018-03-11T19:11:33.980Z,20.17
2018-03-11T19:14:01.473Z,19.35
2018-03-11T19:16:28.999Z,20.20
2018-03-11T19:18:56.843Z,20.75
2018-03-11T19:21:25.108Z,20.23
2018-03-11T19:23:52.710Z,21.15
2018-03-11T19:26:20.552Z,21.83
2018-03-11T19:28:48.112Z,21.23
2018-03-11T19:31:16.421Z,21.42
2018-03-11T19:33:44.032Z,21.02
2018-03-11T19:36:12.331Z,20.33
2018-03-11T19:38:39.845Z,19.23
2018-03-11T19:41:07.666Z,20.85
2018-03-11T19:43:35.191Z,21.17
2018-03-11T19:46:03.139Z,22.40
2018-03-11T19:48:30.929Z,23.55
2018-03-11T19:50:59.199Z,23.45
2018-03-11T19:53:26.689Z,22.87
2018-03-11T19:55:54.277Z,22.83
2018-03-11T19:58:21.764Z,24.48
2018-03-11T20:00:49.278Z,23.65
2018-03-11T20:03:17.109Z,22.73
2018-03-11T20:05:45.356Z,24.12
2018-03-11T20:08:12.852Z,23.33
2018-03-11T20:10:40.378Z,23.87
2018-03-11T20:13:07.880Z,24.15
2018-03-11T20:15:35.408Z,23.65
2018-03-11T20:18:03.729Z,23.60
2018-03-11T20:20:31.207Z,23.17
2018-03-11T20:22:58.737Z,22.65
2018-03-11T20:25:26.472Z,24.42
2018-03-11T20:27:53.887Z,23.40
2018-03-11T20:30:21.379Z,25.08
2018-03-11T20:32:49.700Z,23.20
2018-03-11T20:35:17.186Z,25.52
2018-03-11T20:37:44.714Z,24.90
2018-03-11T20:40:12.271Z,24.42
2018-03-11T20:42:39.780Z,24.92
2018-03-11T20:45:07.278Z,26.45
2018-03-11T20:47:35.684Z,27.80
2018-03-11T20:50:03.159Z,25.50
2018-03-11T20:52:32.249Z,25.37
2018-03-11T20:54:59.756Z,26.52
2018-03-11T20:57:27.281Z,24.92
2018-03-11T20:59:54.848Z,26.58
2018-03-11T21:02:22.340Z,26.40
2018-03-11T21:04:49.825Z,24.87
2018-03-11T21:07:17.291Z,25.95
2018-03-11T21:09:45.031Z,23.40
2018-03-11T21:12:12.529Z,23.73
2018-03-11T21:14:40.056Z,23.70
2018-03-11T21:17:07.640Z,23.27
2018-03-11T21:19:35.516Z,22.85
2018-03-11T21:22:03.011Z,22.75
2018-03-11T21:24:32.096Z,22.95
2018-03-11T21:26:59.685Z,22.58
2018-03-11T21:29:27.192Z,24.27
2018-03-11T21:31:55.078Z,21.62
2018-03-11T21:34:27.278Z,26.45
2018-03-11T21:36:54.840Z,22.50
2018-03-11T21:39:22.343Z,19.33
2018-03-11T21:41:49.887Z,19.45
2018-03-11T21:44:17.410Z,19.87
2018-03-11T21:46:44.970Z,19.12
2018-03-11T21:49:12.526Z,20.75
2018-03-11T21:51:40.327Z,19.20
2018-03-11T21:54:08.671Z,17.87
2018-03-11T21:56:36.258Z,18.42
2018-03-11T21:59:04.193Z,18.17
2018-03-11T22:01:31.741Z,17.15
2018-03-11T22:03:59.249Z,17.50
2018-03-11T22:06:27.024Z,18.37
2018-03-11T22:08:54.505Z,15.73
2018-03-11T22:11:22.056Z,16.08
2018-03-11T22:13:50.685Z,15.43
2018-03-11T22:16:18.267Z,15.15
2018-03-11T22:18:46.009Z,14.38
2018-03-11T22:21:13.599Z,13.70
2018-03-11T22:23:41.229Z,14.95
2018-03-11T22:26:09.151Z,15.07
2018-03-11T22:28:37.468Z,14.98
2018-03-11T22:31:05.042Z,14.75
2018-03-11T22:33:32.538Z,14.75
2018-03-11T22:36:00.026Z,13.40
2018-03-11T22:38:27.534Z,13.75
2018-03-11T22:40:55.020Z,14.70
2018-03-11T22:43:23.597Z,13.93
2018-03-11T22:45:51.832Z,13.90
2018-03-11T22:48:19.353Z,12.40
2018-03-11T22:50:47.341Z,11.98
2018-03-11T22:53:14.831Z,13.32
2018-03-11T22:55:42.347Z,13.15
2018-03-11T22:58:10.114Z,12.70
2018-03-11T23:00:37.616Z,13.62
2018-03-11T23:03:05.111Z,13.90
2018-03-11T23:05:33.389Z,13.18
2018-03-11T23:08:00.943Z,13.20
2018-03-11T23:10:29.247Z,13.40
2018-03-11T23:12:56.761Z,14.18
2018-03-11T23:15:25.025Z,13.70
2018-03-11T23:17:53.306Z,12.57
2018-03-11T23:20:21.232Z,13.00
2018-03-11T23:22:48.746Z,12.90
2018-03-11T23:25:17.065Z,12.75
2018-03-11T23:27:44.875Z,11.73
2018-03-11T23:30:12.433Z,11.85
2018-03-11T23:32:40.720Z,11.40
2018-03-11T23:35:09.334Z,11.18
2018-03-11T23:37:36.812Z,11.40
2018-03-11T23:40:04.338Z,12.00
2018-03-11T23:42:32.634Z,10.75
2018-03-11T23:45:00.200Z,10.40
2018-03-11T23:47:27.754Z,11.48
2018-03-11T23:49:55.417Z,11.40
2018-03-11T23:52:22.992Z,9.77
2018-03-11T23:54:50.588Z,10.40
2018-03-11T23:57:18.808Z,10.32
2018-03-11T23:59:46.296Z,10.55
